Time;durP1;ratioP1;P1;durP2;ratioP2;P2;SDS_P1;SDS_P2;PMS_P1;PMS_P2;Temp;Humidity;BMP_temperature;BMP_pressure;BME280_temperature;BME280_humidity;BME280_pressure;Samples;Min_cycle;Max_cycle;Signal;HPM_P1;HPM_P2
2021/11/01 00:01:16;;;;;;;8.27;1.80;;;12.10;99.90;;;;;;4122547;28;20033;-76
2021/11/01 00:03:16;;;;;;;9.13;2.42;;;12.00;99.90;;;;;;4122520;28;20042;-76
2021/11/01 00:05:18;;;;;;;9.60;2.50;;;12.10;99.90;;;;;;4122841;28;20026;-76
2021/11/01 00:07:19;;;;;;;10.52;2.45;;;12.00;99.90;;;;;;4121936;28;20034;-76
2021/11/01 00:09:19;;;;;;;7.60;1.85;;;12.10;99.90;;;;;;4121343;28;20037;-76
2021/11/01 00:11:20;;;;;;;10.98;2.08;;;12.10;99.90;;;;;;4122363;28;20058;-76
2021/11/01 00:13:20;;;;;;;10.20;2.10;;;12.00;99.90;;;;;;4121950;28;20077;-76
2021/11/01 00:15:21;;;;;;;11.27;2.22;;;12.00;99.90;;;;;;4121556;28;20071;-76
2021/11/01 00:17:22;;;;;;;12.95;2.60;;;12.00;99.90;;;;;;4120449;28;20030;-76
2021/11/01 00:19:22;;;;;;;9.55;2.67;;;12.00;99.90;;;;;;4122209;28;20490;-76
2021/11/01 00:21:24;;;;;;;10.18;2.13;;;12.00;99.90;;;;;;4120515;28;20034;-76
2021/11/01 00:23:25;;;;;;;10.60;2.10;;;12.00;99.90;;;;;;4122120;28;20117;-76
2021/11/01 00:25:25;;;;;;;7.20;2.08;;;12.00;99.90;;;;;;4121859;28;20467;-76
2021/11/01 00:27:26;;;;;;;7.55;2.13;;;12.00;99.90;;;;;;4122040;28;20482;-76
2021/11/01 00:29:26;;;;;;;6.35;1.73;;;12.10;99.90;;;;;;4120434;28;20415;-76
2021/11/01 00:31:27;;;;;;;12.75;2.50;;;12.00;99.90;;;;;;4123945;28;20030;-76
2021/11/01 00:33:28;;;;;;;12.55;2.50;;;12.00;99.90;;;;;;4110460;28;20035;-76
2021/11/01 00:35:29;;;;;;;12.77;2.33;;;11.90;99.90;;;;;;4129134;28;20048;-76
2021/11/01 00:37:29;;;;;;;7.55;1.92;;;11.90;99.90;;;;;;4125475;28;20050;-76
2021/11/01 00:39:30;;;;;;;5.15;1.83;;;12.00;99.90;;;;;;4125253;28;20022;-76
2021/11/01 00:41:30;;;;;;;8.15;2.42;;;11.90;99.90;;;;;;4126333;28;20030;-76
2021/11/01 00:43:31;;;;;;;10.05;2.45;;;11.90;99.90;;;;;;4121758;28;20393;-76
2021/11/01 00:45:32;;;;;;;12.18;2.67;;;11.90;99.90;;;;;;4122124;28;20054;-76
2021/11/01 00:47:32;;;;;;;8.93;1.70;;;11.90;99.90;;;;;;4125352;28;20030;-76
2021/11/01 00:49:33;;;;;;;9.20;2.28;;;11.90;99.90;;;;;;4123192;28;20465;-76
2021/11/01 00:51:40;;;;;;;6.05;1.75;;;11.90;99.90;;;;;;4122428;28;20101;-77
2021/11/01 00:53:47;;;;;;;12.77;2.25;;;11.90;99.90;;;;;;4127676;28;20065;-76
2021/11/01 00:55:49;;;;;;;7.90;1.88;;;11.90;99.90;;;;;;4122645;28;20034;-76
2021/11/01 00:57:52;;;;;;;6.72;1.73;;;11.90;99.90;;;;;;4124549;28;20030;-76
2021/11/01 00:59:53;;;;;;;8.32;1.70;;;11.90;99.90;;;;;;4122316;28;20507;-76
2021/11/01 01:01:54;;;;;;;7.40;1.98;;;11.90;99.90;;;;;;4125798;28;20042;-76
2021/11/01 01:03:55;;;;;;;4.60;1.33;;;11.90;99.90;;;;;;4125299;28;20038;-76
2021/11/01 01:05:58;;;;;;;9.23;1.83;;;11.90;99.90;;;;;;4122230;28;20133;-76
2021/11/01 01:07:58;;;;;;;;;;;11.90;99.90;;;;;;4126151;28;20128;-76
2021/11/01 01:09:59;;;;;;;5.47;1.90;;;11.90;99.90;;;;;;4123966;28;19910;-76
2021/11/01 01:12:01;;;;;;;9.80;1.98;;;11.80;99.90;;;;;;4127606;28;20034;-76
2021/11/01 01:14:01;;;;;;;4.68;1.65;;;11.80;99.90;;;;;;4123948;28;20043;-76
2021/11/01 01:18:11;;;;;;;;;;;11.80;99.90;;;;;;4123617;28;20042;-76
2021/11/01 01:20:14;;;;;;;9.07;1.45;;;11.80;99.90;;;;;;4120114;28;19968;-76
2021/11/01 01:22:35;;;;;;;5.68;1.40;;;11.80;99.90;;;;;;4121400;28;20047;-76
2021/11/01 01:24:35;;;;;;;7.88;2.20;;;11.80;99.90;;;;;;4127702;28;20030;-76
2021/11/01 01:26:37;;;;;;;9.00;1.80;;;11.80;99.90;;;;;;4123730;28;20073;-76
2021/11/01 01:28:37;;;;;;;11.20;2.35;;;11.80;99.90;;;;;;4125986;28;20069;-76
2021/11/01 01:30:39;;;;;;;7.38;1.58;;;11.80;99.90;;;;;;4123451;28;20039;-76
2021/11/01 01:32:41;;;;;;;11.00;2.00;;;11.80;99.90;;;;;;4123076;28;20043;-76
2021/11/01 01:34:42;;;;;;;6.80;1.97;;;11.70;99.90;;;;;;4124476;28;20271;-76
2021/11/01 01:36:42;;;;;;;7.82;1.55;;;11.70;99.90;;;;;;4125009;28;20462;-76
2021/11/01 01:38:43;;;;;;;10.27;1.77;;;11.70;99.90;;;;;;4126796;28;20057;-76
2021/11/01 01:40:43;;;;;;;6.65;2.03;;;11.70;99.90;;;;;;4123518;28;20193;-76
2021/11/01 01:42:44;;;;;;;5.25;1.58;;;11.70;99.90;;;;;;4123992;28;20034;-76
2021/11/01 01:44:45;;;;;;;9.45;2.00;;;11.70;99.90;;;;;;4121861;28;20383;-76
2021/11/01 01:46:45;;;;;;;6.70;1.67;;;11.70;99.90;;;;;;4125180;28;20436;-76
2021/11/01 01:48:46;;;;;;;4.10;1.58;;;11.70;99.90;;;;;;4123289;28;20030;-76
2021/11/01 01:50:47;;;;;;;5.93;1.63;;;11.70;99.90;;;;;;4129343;28;20441;-76
2021/11/01 01:52:49;;;;;;;8.27;2.05;;;11.60;99.90;;;;;;4128580;28;20097;-76
2021/11/01 01:54:50;;;;;;;7.13;1.47;;;11.60;99.90;;;;;;4122987;28;20030;-76
2021/11/01 01:56:51;;;;;;;5.15;1.45;;;11.60;99.90;;;;;;4127708;28;20255;-76
2021/11/01 01:58:56;;;;;;;10.60;2.10;;;11.60;99.90;;;;;;4128660;28;20054;-76
2021/11/01 02:03:04;;;;;;;6.22;1.73;;;11.60;99.90;;;;;;4125766;28;20030;-76
2021/11/01 02:05:06;;;;;;;7.32;1.77;;;11.60;99.90;;;;;;4129647;28;20053;-76
2021/11/01 02:07:32;;;;;;;5.72;1.70;;;11.60;99.90;;;;;;4125834;28;20560;-76
2021/11/01 02:09:55;;;;;;;12.30;1.80;;;11.60;99.90;;;;;;4126969;28;20053;-76
2021/11/01 02:12:03;;;;;;;6.57;1.55;;;11.50;99.90;;;;;;4127177;28;20270;-76
2021/11/01 02:14:10;;;;;;;4.35;1.35;;;11.60;99.90;;;;;;4124327;28;20033;-76
2021/11/01 02:16:13;;;;;;;5.22;1.85;;;11.60;99.90;;;;;;4123996;28;20587;-76
2021/11/01 02:18:15;;;;;;;5.18;1.13;;;11.60;99.90;;;;;;4126451;28;20597;-76
2021/11/01 02:20:21;;;;;;;3.97;1.55;;;11.50;99.90;;;;;;4126395;28;20042;-76
2021/11/01 02:22:40;;;;;;;5.35;1.25;;;11.50;99.90;;;;;;4125559;28;20126;-76
2021/11/01 02:24:51;;;;;;;5.20;1.48;;;11.50;99.90;;;;;;4126133;28;20404;-76
2021/11/01 02:26:53;;;;;;;7.03;1.58;;;11.50;99.90;;;;;;4121738;28;20474;-76
2021/11/01 02:28:54;;;;;;;5.22;1.35;;;11.50;99.90;;;;;;4125542;28;20030;-76
2021/11/01 02:30:55;;;;;;;3.85;1.42;;;11.50;99.90;;;;;;4126536;28;20892;-76
2021/11/01 02:32:57;;;;;;;4.28;1.77;;;11.50;99.90;;;;;;4125008;28;20030;-76
2021/11/01 02:34:58;;;;;;;5.68;1.60;;;11.50;99.90;;;;;;4128996;28;20338;-76
2021/11/01 02:36:59;;;;;;;10.52;1.60;;;11.50;99.90;;;;;;4123775;28;20034;-76
2021/11/01 02:39:01;;;;;;;4.38;1.58;;;11.50;99.90;;;;;;4126196;28;20124;-76
2021/11/01 02:41:24;;;;;;;7.25;1.85;;;11.40;99.90;;;;;;4122915;28;20502;-76
2021/11/01 02:43:27;;;;;;;8.40;1.42;;;11.40;99.90;;;;;;4127811;28;20140;-76
2021/11/01 02:45:28;;;;;;;8.68;1.73;;;11.40;99.90;;;;;;4122371;28;20030;-76
2021/11/01 02:47:29;;;;;;;7.82;1.83;;;11.40;99.90;;;;;;4123087;28;20027;-76
2021/11/01 02:49:30;;;;;;;7.72;1.52;;;11.30;99.90;;;;;;4125530;28;20035;-76
2021/11/01 02:51:32;;;;;;;6.88;1.52;;;11.20;99.90;;;;;;4122675;28;20034;-76
2021/11/01 02:53:33;;;;;;;5.15;1.52;;;11.20;99.90;;;;;;4130098;28;20437;-76
2021/11/01 02:55:34;;;;;;;4.03;1.40;;;11.30;99.90;;;;;;4125524;28;20109;-76
2021/11/01 02:57:35;;;;;;;5.88;1.55;;;11.30;99.90;;;;;;4126064;28;20097;-77
2021/11/01 02:59:35;;;;;;;6.15;1.63;;;11.20;99.90;;;;;;4124265;28;20042;-76
2021/11/01 03:01:36;;;;;;;6.20;1.63;;;11.20;99.90;;;;;;4123442;28;20063;-76
2021/11/01 03:03:38;;;;;;;4.43;1.42;;;11.20;99.90;;;;;;4122503;28;20093;-76
2021/11/01 03:05:40;;;;;;;10.27;2.20;;;11.20;99.90;;;;;;4124208;28;20045;-76
2021/11/01 03:07:42;;;;;;;6.37;1.57;;;11.20;99.90;;;;;;4124163;28;20046;-76
2021/11/01 03:09:45;;;;;;;6.00;1.50;;;11.20;99.90;;;;;;4123796;28;20034;-76
2021/11/01 03:11:46;;;;;;;9.50;1.67;;;11.20;99.90;;;;;;4119653;28;20140;-76
2021/11/01 03:13:48;;;;;;;5.05;2.03;;;11.20;99.90;;;;;;4116541;28;20030;-76
2021/11/01 03:15:49;;;;;;;6.78;1.75;;;11.20;99.90;;;;;;4121751;28;20065;-76
2021/11/01 03:17:55;;;;;;;10.10;1.58;;;11.20;99.90;;;;;;4120260;28;20042;-76
2021/11/01 03:20:01;;;;;;;9.52;1.73;;;11.20;99.90;;;;;;4118428;28;20060;-76
2021/11/01 03:22:05;;;;;;;6.68;1.70;;;11.10;99.90;;;;;;4119530;28;20497;-76
2021/11/01 03:24:07;;;;;;;10.60;2.13;;;11.20;99.90;;;;;;4135408;28;20482;-76
2021/11/01 03:26:11;;;;;;;10.07;2.15;;;11.20;99.90;;;;;;4118142;28;20116;-76
2021/11/01 03:28:13;;;;;;;2.85;1.17;;;11.10;99.90;;;;;;4121631;28;20045;-76
2021/11/01 03:30:15;;;;;;;8.73;1.73;;;11.10;99.90;;;;;;4119061;28;20085;-76
2021/11/01 03:32:16;;;;;;;4.53;1.67;;;11.10;99.90;;;;;;4122058;28;20437;-76
2021/11/01 03:34:19;;;;;;;8.40;1.75;;;11.10;99.90;;;;;;4119978;28;20212;-76
2021/11/01 03:36:22;;;;;;;8.80;2.20;;;11.10;99.90;;;;;;4119473;28;20038;-76
2021/11/01 03:38:23;;;;;;;6.47;1.60;;;11.10;99.90;;;;;;4121098;28;20104;-76
2021/11/01 03:40:27;;;;;;;7.57;1.80;;;11.20;99.90;;;;;;4121321;28;20450;-76
2021/11/01 03:42:28;;;;;;;4.57;1.65;;;11.20;99.90;;;;;;4119898;28;20034;-77
2021/11/01 03:44:32;;;;;;;4.88;1.80;;;11.10;99.90;;;;;;4119957;28;20682;-76
2021/11/01 03:46:41;;;;;;;8.85;1.73;;;11.10;99.90;;;;;;4121483;28;20121;-76
2021/11/01 03:48:43;;;;;;;4.38;1.52;;;11.10;99.90;;;;;;4117867;28;20045;-76
2021/11/01 03:50:56;;;;;;;7.10;1.48;;;11.10;99.90;;;;;;4119561;28;20046;-76
2021/11/01 03:52:57;;;;;;;6.93;1.52;;;11.00;99.90;;;;;;4121163;28;20486;-76
2021/11/01 03:54:58;;;;;;;6.95;1.73;;;11.00;99.90;;;;;;4120017;28;20046;-76
2021/11/01 03:56:59;;;;;;;7.80;1.35;;;11.00;99.90;;;;;;4121395;28;20053;-76
2021/11/01 03:59:00;;;;;;;3.92;1.27;;;11.00;99.90;;;;;;4121356;28;21534;-76
2021/11/01 04:01:01;;;;;;;3.83;1.27;;;11.00;99.90;;;;;;4120455;28;20395;-76
2021/11/01 04:03:04;;;;;;;4.40;1.20;;;11.00;99.90;;;;;;4120837;28;20145;-76
2021/11/01 04:05:06;;;;;;;6.30;1.70;;;11.00;99.90;;;;;;4119507;28;20112;-76
2021/11/01 04:07:06;;;;;;;5.60;1.57;;;11.00;99.90;;;;;;4120761;28;20045;-76
2021/11/01 04:09:12;;;;;;;5.85;1.67;;;11.00;99.90;;;;;;4121188;28;20146;-76
2021/11/01 04:11:13;;;;;;;9.40;1.80;;;11.00;99.90;;;;;;4122302;28;20034;-76
2021/11/01 04:13:14;;;;;;;7.15;1.65;;;11.00;99.90;;;;;;4118389;28;20097;-76
2021/11/01 04:15:19;;;;;;;5.38;1.88;;;11.00;99.90;;;;;;4122368;28;20048;-76
2021/11/01 04:17:24;;;;;;;8.93;2.25;;;11.00;99.90;;;;;;4125009;28;20053;-76
2021/11/01 04:21:25;;;;;;;9.10;1.88;;;11.00;99.90;;;;;;4121395;28;20042;-76
2021/11/01 04:23:31;;;;;;;3.67;1.30;;;11.00;99.90;;;;;;4126035;28;20096;-76
2021/11/01 04:25:32;;;;;;;5.82;1.20;;;11.10;99.90;;;;;;4126859;28;20387;-76
2021/11/01 04:27:33;;;;;;;4.07;1.48;;;11.10;99.90;;;;;;4128445;28;20490;-76
2021/11/01 04:29:35;;;;;;;7.68;1.77;;;11.00;99.90;;;;;;4124216;28;20346;-76
2021/11/01 04:31:38;;;;;;;11.60;2.17;;;11.00;99.90;;;;;;4122654;28;20129;-76
2021/11/01 04:33:41;;;;;;;7.55;1.65;;;11.00;99.90;;;;;;4121162;28;20427;-76
2021/11/01 04:35:43;;;;;;;5.70;1.48;;;11.00;99.90;;;;;;4119607;28;20050;-76
2021/11/01 04:37:45;;;;;;;6.90;1.58;;;11.00;99.90;;;;;;4121692;28;20133;-76
2021/11/01 04:40:12;;;;;;;8.52;1.88;;;11.00;99.90;;;;;;4122593;28;20324;-76
2021/11/01 04:42:50;;;;;;;4.78;1.40;;;11.00;99.90;;;;;;4123381;28;20442;-76
2021/11/01 04:54:09;;;;;;;10.23;2.35;;;10.90;99.90;;;;;;4121478;28;20545;-76
2021/11/01 04:56:10;;;;;;;8.75;2.15;;;10.90;99.90;;;;;;4120907;28;20379;-76
2021/11/01 04:58:11;;;;;;;7.72;2.03;;;10.90;99.90;;;;;;4124933;28;20058;-76
2021/11/01 05:00:13;;;;;;;5.45;1.50;;;10.90;99.90;;;;;;4121564;28;20061;-76
2021/11/01 05:02:13;;;;;;;5.57;1.48;;;10.90;99.90;;;;;;4123677;28;20073;-76
2021/11/01 05:04:17;;;;;;;7.78;1.85;;;10.90;99.90;;;;;;4125096;28;20073;-76
2021/11/01 05:06:22;;;;;;;6.65;1.90;;;11.00;99.90;;;;;;4122689;28;20512;-76
2021/11/01 05:08:27;;;;;;;13.98;2.20;;;10.90;99.90;;;;;;4124773;28;20041;-76
2021/11/01 05:10:33;;;;;;;7.03;1.58;;;10.90;99.90;;;;;;4125274;28;20438;-76
2021/11/01 05:12:39;;;;;;;7.90;1.90;;;10.90;99.90;;;;;;4123909;28;20449;-76
2021/11/01 05:29:17;;;;;;;7.38;1.90;;;10.80;99.90;;;;;;4125321;28;20038;-76
2021/11/01 05:31:26;;;;;;;8.55;1.85;;;10.80;99.90;;;;;;4123529;28;20417;-76
2021/11/01 05:33:46;;;;;;;7.10;2.03;;;10.80;99.90;;;;;;4111146;28;20631;-76
2021/11/01 05:35:46;;;;;;;4.07;1.52;;;10.80;99.90;;;;;;4125993;28;20549;-76
2021/11/01 05:37:48;;;;;;;7.90;1.67;;;10.80;99.90;;;;;;4125592;28;20070;-76
2021/11/01 05:39:49;;;;;;;5.03;1.63;;;10.80;99.90;;;;;;4124471;28;20039;-76
2021/11/01 05:41:50;;;;;;;5.97;1.60;;;10.80;99.90;;;;;;4130302;28;20046;-76
2021/11/01 05:43:51;;;;;;;8.07;1.88;;;10.80;99.90;;;;;;4124414;28;20447;-76
2021/11/01 05:45:52;;;;;;;6.90;1.83;;;10.80;99.90;;;;;;4125014;28;20045;-76
2021/11/01 05:47:57;;;;;;;7.30;1.73;;;10.80;99.90;;;;;;4124215;28;20038;-76
2021/11/01 05:49:58;;;;;;;5.60;1.73;;;10.80;99.90;;;;;;4126409;28;20497;-76
2021/11/01 05:52:02;;;;;;;11.55;2.20;;;10.70;99.90;;;;;;4127109;28;20026;-76
2021/11/01 05:54:09;;;;;;;4.47;1.50;;;10.80;99.90;;;;;;4127962;28;20034;-76
2021/11/01 05:58:35;;;;;;;7.32;2.05;;;10.70;99.90;;;;;;4129260;28;20073;-76
2021/11/01 06:02:47;;;;;;;5.47;1.77;;;10.70;99.90;;;;;;4124298;28;20509;-76
2021/11/01 06:13:30;;;;;;;7.38;2.17;;;10.70;99.90;;;;;;4126159;28;20034;-78
2021/11/01 06:15:31;;;;;;;7.18;2.03;;;10.70;99.90;;;;;;4124238;28;20502;-78
2021/11/01 06:17:32;;;;;;;6.97;2.30;;;10.70;99.90;;;;;;4123993;28;20034;-78
2021/11/01 06:19:33;;;;;;;8.80;2.05;;;10.60;99.90;;;;;;4124288;28;20477;-78
2021/11/01 06:21:34;;;;;;;9.43;2.10;;;10.60;99.90;;;;;;4124214;28;20030;-78
2021/11/01 06:23:36;;;;;;;6.63;1.92;;;10.60;99.90;;;;;;4123678;28;20232;-78
2021/11/01 06:25:38;;;;;;;8.82;1.90;;;10.60;99.90;;;;;;4123675;28;20526;-78
2021/11/01 06:27:39;;;;;;;4.72;1.67;;;10.60;99.90;;;;;;4123062;28;20041;-78
2021/11/01 06:29:59;;;;;;;9.93;2.10;;;10.60;99.90;;;;;;4108603;28;20121;-78
2021/11/01 06:32:10;;;;;;;7.28;1.90;;;10.60;99.90;;;;;;4120086;28;20147;-78
2021/11/01 06:43:33;;;;;;;6.13;1.65;;;10.50;99.90;;;;;;4122775;28;20518;-78
2021/11/01 06:50:22;;;;;;;6.50;1.60;;;10.60;99.90;;;;;;4059169;29;20055;-78
2021/11/01 07:15:24;;;;;;;6.45;1.90;;;10.60;99.90;;;;;;4125014;28;20054;-78
2021/11/01 07:17:39;;;;;;;4.63;1.52;;;10.60;99.90;;;;;;4124517;28;20085;-78
2021/11/01 07:30:06;;;;;;;13.50;2.00;;;10.70;99.90;;;;;;4125096;28;20073;-78
2021/11/01 08:48:23;;;;;;;6.95;1.80;;;15.00;99.90;;;;;;4120976;28;20391;-75
2021/11/01 09:13:39;;;;;;;3.58;1.48;;;14.40;99.90;;;;;;4102079;28;20074;-75
2021/11/01 09:25:10;;;;;;;5.60;1.88;;;14.00;99.90;;;;;;4124820;28;20042;-75
2021/11/01 09:27:16;;;;;;;8.90;2.40;;;14.10;99.90;;;;;;4122821;28;20029;-75
2021/11/01 09:36:18;;;;;;;8.75;2.38;;;14.10;99.90;;;;;;4126264;28;20099;-74
2021/11/01 09:42:54;;;;;;;5.47;1.48;;;14.10;99.90;;;;;;4125093;28;20034;-75
2021/11/01 09:44:55;;;;;;;11.93;2.13;;;14.10;99.90;;;;;;4123393;28;20061;-75
2021/11/01 09:46:57;;;;;;;6.97;1.52;;;14.10;99.90;;;;;;4123293;28;20035;-75
2021/11/01 09:49:18;;;;;;;11.73;2.45;;;14.20;99.90;;;;;;4126244;28;20558;-75
2021/11/01 09:51:19;;;;;;;7.68;1.80;;;14.20;99.90;;;;;;4122713;28;20038;-75
2021/11/01 09:53:47;;;;;;;12.55;1.77;;;14.10;99.90;;;;;;4122833;28;20039;-76
2021/11/01 09:55:50;;;;;;;7.45;1.95;;;14.10;99.90;;;;;;4122164;28;20106;-75
2021/11/01 10:00:10;;;;;;;6.70;1.80;;;14.10;99.90;;;;;;4122130;28;20167;-76
2021/11/01 10:02:15;;;;;;;7.50;1.60;;;14.20;99.90;;;;;;4124426;28;20030;-76
2021/11/01 10:04:23;;;;;;;6.90;1.58;;;14.20;99.90;;;;;;4123990;28;20052;-76
2021/11/01 10:06:27;;;;;;;8.82;2.00;;;14.10;99.90;;;;;;4122948;28;20046;-76
2021/11/01 10:08:29;;;;;;;5.38;1.40;;;14.10;99.90;;;;;;4124655;28;20064;-76
2021/11/01 10:10:40;;;;;;;10.82;1.98;;;14.10;99.90;;;;;;4123170;28;20034;-76
2021/11/01 10:12:44;;;;;;;5.05;1.60;;;14.10;99.90;;;;;;4120746;28;20607;-76
2021/11/01 10:14:49;;;;;;;7.78;1.75;;;14.10;99.90;;;;;;4104022;28;20081;-76
2021/11/01 10:19:11;;;;;;;8.48;1.92;;;14.10;99.90;;;;;;4107909;28;20041;-76
2021/11/01 10:21:16;;;;;;;7.63;1.98;;;14.20;99.90;;;;;;4133328;28;20553;-76
2021/11/01 10:23:23;;;;;;;8.90;1.70;;;14.10;99.90;;;;;;4123883;28;20133;-76
2021/11/01 10:25:25;;;;;;;6.63;1.40;;;14.20;99.90;;;;;;4126012;28;20125;-76
2021/11/01 10:27:51;;;;;;;6.13;1.37;;;14.20;99.90;;;;;;4122443;28;20038;-76
2021/11/01 10:29:53;;;;;;;6.13;1.65;;;14.10;99.90;;;;;;4105866;28;20301;-75
2021/11/01 10:31:53;;;;;;;8.85;2.00;;;14.10;99.90;;;;;;4122755;28;20100;-75
2021/11/01 10:34:08;;;;;;;8.65;1.58;;;14.20;99.90;;;;;;4122585;28;20050;-74
2021/11/01 10:36:09;;;;;;;4.28;1.45;;;14.20;99.90;;;;;;4121735;28;20054;-76
2021/11/01 10:40:11;;;;;;;4.78;1.58;;;14.10;99.90;;;;;;4121422;28;20023;-75
2021/11/01 10:42:29;;;;;;;4.32;1.27;;;14.10;99.90;;;;;;4122354;28;20106;-76
2021/11/01 11:13:14;;;;;;;8.35;1.90;;;14.00;99.90;;;;;;4061997;29;20076;-76
2021/11/01 11:15:15;;;;;;;6.30;1.52;;;14.10;99.90;;;;;;4065010;28;20036;-76
2021/11/01 11:27:16;;;;;;;7.88;1.75;;;14.20;99.90;;;;;;4127879;28;20060;-76
2021/11/01 11:43:59;;;;;;;12.63;3.38;;;14.50;99.90;;;;;;4116427;28;20043;-75
2021/11/01 11:48:38;;;;;;;3.70;1.67;;;14.50;99.90;;;;;;4126306;28;20038;-75
2021/11/01 11:50:40;;;;;;;7.97;3.10;;;14.50;99.90;;;;;;4128980;28;20061;-74
2021/11/01 11:52:41;;;;;;;4.97;3.67;;;14.50;99.90;;;;;;4125890;28;20057;-74
2021/11/01 11:54:53;;;;;;;7.65;4.82;;;14.50;99.90;;;;;;4124429;28;20536;-75
2021/11/01 11:56:56;;;;;;;14.15;8.20;;;14.50;99.90;;;;;;4126022;28;20045;-74
2021/11/01 11:58:59;;;;;;;10.00;6.32;;;14.40;99.90;;;;;;4125903;28;20046;-74
2021/11/01 12:01:00;;;;;;;11.43;6.95;;;14.30;99.90;;;;;;4126733;28;20038;-74
2021/11/01 12:03:11;;;;;;;10.02;6.57;;;14.30;99.90;;;;;;4124111;28;20072;-75
2021/11/01 12:05:19;;;;;;;10.10;5.95;;;14.30;99.90;;;;;;4123476;28;20034;-74
2021/11/01 12:07:19;;;;;;;10.07;6.25;;;14.30;99.90;;;;;;4123936;28;20486;-74
2021/11/01 12:09:30;;;;;;;6.97;4.47;;;14.30;99.90;;;;;;4125237;28;20034;-74
2021/11/01 12:18:11;;;;;;;5.27;3.47;;;14.20;99.90;;;;;;4121554;28;20461;-74
2021/11/01 12:20:12;;;;;;;8.18;3.00;;;14.10;99.90;;;;;;4121118;28;20080;-74
2021/11/01 12:22:28;;;;;;;5.90;3.40;;;14.10;99.90;;;;;;4127020;28;20045;-73
2021/11/01 12:24:29;;;;;;;17.20;11.45;;;14.10;99.90;;;;;;4126486;28;20037;-74
2021/11/01 12:26:29;;;;;;;7.53;3.83;;;14.10;99.90;;;;;;4121801;28;20039;-74
2021/11/01 12:28:30;;;;;;;7.68;2.13;;;14.10;99.90;;;;;;4125860;28;20061;-74
2021/11/01 12:30:37;;;;;;;8.55;5.28;;;14.10;99.90;;;;;;4125296;28;20366;-70
2021/11/01 12:32:39;;;;;;;10.65;4.07;;;14.20;99.90;;;;;;4125096;28;20027;-74
2021/11/01 12:35:12;;;;;;;7.25;2.90;;;14.20;99.90;;;;;;4124975;28;20596;-73
2021/11/01 12:37:21;;;;;;;3.80;1.63;;;14.30;99.90;;;;;;4123721;28;20038;-73
2021/11/01 12:39:38;;;;;;;6.05;1.60;;;14.20;99.90;;;;;;4125787;28;20470;-73
2021/11/01 12:41:51;;;;;;;6.15;1.60;;;14.30;99.90;;;;;;4122872;28;20480;-74
2021/11/01 12:48:41;;;;;;;5.05;1.40;;;14.30;99.90;;;;;;4126658;28;20117;-74
2021/11/01 12:57:44;;;;;;;4.35;1.73;;;14.50;99.90;;;;;;4122412;28;20137;-74
2021/11/01 12:59:47;;;;;;;3.17;1.50;;;14.50;99.90;;;;;;4120029;28;20038;-74
2021/11/01 13:01:48;;;;;;;2.67;0.98;;;14.50;99.90;;;;;;4121206;28;21021;-74
2021/11/01 13:04:07;;;;;;;3.40;1.20;;;14.50;99.90;;;;;;4124968;28;20030;-75
2021/11/01 13:06:12;;;;;;;3.83;1.40;;;14.50;99.90;;;;;;4122078;28;20034;-75
2021/11/01 13:08:16;;;;;;;3.47;1.42;;;14.50;99.90;;;;;;4124303;28;20555;-74
2021/11/01 13:19:25;;;;;;;5.25;1.80;;;14.40;99.90;;;;;;4122308;28;22962;-75
2021/11/01 13:21:33;;;;;;;3.15;1.25;;;14.40;99.90;;;;;;4126445;28;20422;-75
2021/11/01 13:23:35;;;;;;;3.65;1.13;;;14.40;99.90;;;;;;4127994;28;20113;-75
2021/11/01 13:39:27;;;;;;;5.30;1.55;;;14.20;99.90;;;;;;4125491;28;20042;-75
2021/11/01 13:41:28;;;;;;;3.15;1.30;;;14.10;99.90;;;;;;4123389;28;20030;-74
2021/11/01 13:43:30;;;;;;;5.07;1.80;;;14.10;99.90;;;;;;4127968;28;20115;-75
2021/11/01 13:45:32;;;;;;;4.80;1.27;;;14.20;99.90;;;;;;4124295;28;20042;-75
2021/11/01 13:47:51;;;;;;;4.53;1.50;;;14.20;99.90;;;;;;4123608;28;20042;-75
2021/11/01 13:49:51;;;;;;;7.15;1.30;;;14.20;99.90;;;;;;4127270;28;20065;-74
2021/11/01 13:51:52;;;;;;;6.95;1.88;;;14.20;99.90;;;;;;4107723;28;20034;-75
2021/11/01 13:54:50;;;;;;;7.15;1.50;;;14.10;99.90;;;;;;4127879;28;20084;-75
2021/11/01 13:56:32;;;;;;;3.95;0.90;;;14.10;99.90;;;;;;4123136;28;20077;-74
2021/11/01 13:58:36;;;;;;;6.60;1.50;;;14.10;99.90;;;;;;4130264;28;20833;-75
2021/11/01 14:12:30;;;;;;;4.82;1.27;;;14.20;99.90;;;;;;4125763;28;20937;-74
2021/11/01 14:18:53;;;;;;;3.00;1.05;;;14.10;99.90;;;;;;4129320;28;20073;-75
2021/11/01 14:26:52;;;;;;;4.32;1.17;;;14.10;99.90;;;;;;4123311;28;20128;-75
2021/11/01 14:28:16;;;;;;;5.00;1.23;;;14.00;99.90;;;;;;4127966;28;20669;-74
2021/11/01 14:30:36;;;;;;;6.75;1.48;;;14.00;99.90;;;;;;4126387;28;20036;-75
2021/11/01 15:06:29;;;;;;;2.85;0.80;;;13.90;99.90;;;;;;4126511;28;20042;-75
2021/11/01 15:18:47;;;;;;;2.00;0.85;;;14.00;99.90;;;;;;4125623;28;20033;-74
2021/11/01 15:21:03;;;;;;;3.17;1.15;;;14.00;99.90;;;;;;4126631;28;20123;-74
2021/11/01 15:28:02;;;;;;;5.75;1.13;;;14.00;99.90;;;;;;4126641;28;20027;-74
2021/11/01 15:32:52;;;;;;;3.95;1.48;;;14.00;99.90;;;;;;4124206;28;20054;-74
2021/11/01 16:16:46;;;;;;;3.42;1.40;;;13.90;99.90;;;;;;4097011;28;20031;-73
2021/11/01 16:18:45;;;;;;;5.63;1.70;;;13.80;99.90;;;;;;4124212;28;20042;-73
2021/11/01 16:20:47;;;;;;;4.15;1.70;;;13.80;99.90;;;;;;4125062;28;20125;-73
2021/11/01 16:22:53;;;;;;;5.65;1.23;;;13.80;99.90;;;;;;4130158;28;20053;-73
2021/11/01 16:24:54;;;;;;;5.18;1.38;;;13.70;99.90;;;;;;4133385;28;20049;-75
2021/11/01 16:26:55;;;;;;;5.32;1.40;;;13.80;99.90;;;;;;4129937;28;20502;-73
2021/11/01 16:31:14;;;;;;;5.57;1.77;;;13.80;99.90;;;;;;4131264;28;20046;-73
2021/11/01 16:33:15;;;;;;;7.85;1.90;;;13.80;99.90;;;;;;4128191;28;20482;-73
2021/11/01 16:35:21;;;;;;;3.65;1.60;;;13.70;99.90;;;;;;4129105;28;20150;-73
2021/11/01 16:38:10;;;;;;;7.45;2.50;;;13.70;99.90;;;;;;4130627;28;20049;-73
2021/11/01 16:39:47;;;;;;;3.92;1.83;;;13.70;99.90;;;;;;4121727;28;20038;-73
2021/11/01 16:41:48;;;;;;;7.43;2.50;;;13.70;99.90;;;;;;4134235;28;20037;-73
2021/11/01 16:43:49;;;;;;;7.13;3.45;;;13.70;99.90;;;;;;4129662;28;20058;-74
2021/11/01 16:45:52;;;;;;;8.13;3.60;;;13.70;99.90;;;;;;4131694;28;20069;-73
2021/11/01 16:47:53;;;;;;;6.53;3.10;;;13.60;99.90;;;;;;4131103;28;20022;-72
2021/11/01 16:49:55;;;;;;;5.78;3.00;;;13.70;99.90;;;;;;4128313;28;20026;-73
2021/11/01 16:51:55;;;;;;;5.63;2.88;;;13.70;99.90;;;;;;4125798;28;20113;-73
2021/11/01 16:53:56;;;;;;;5.72;2.63;;;13.70;99.90;;;;;;4129931;28;20030;-73
2021/11/01 16:56:10;;;;;;;3.50;2.03;;;13.70;99.90;;;;;;4125318;28;20041;-73
2021/11/01 16:58:18;;;;;;;7.55;2.15;;;13.70;99.90;;;;;;4122445;28;20057;-72
2021/11/01 17:00:36;;;;;;;4.63;1.48;;;13.70;99.90;;;;;;4127650;28;20029;-73
2021/11/01 17:05:17;;;;;;;4.88;1.98;;;13.60;99.90;;;;;;4123770;28;20498;-73
2021/11/01 17:07:40;;;;;;;4.07;1.75;;;13.50;99.90;;;;;;4125597;28;20034;-72
2021/11/01 17:25:25;;;;;;;5.68;2.17;;;13.30;99.90;;;;;;4128665;28;20342;-73
2021/11/01 17:35:12;;;;;;;6.22;3.28;;;13.20;99.90;;;;;;4131490;28;20039;-72
2021/11/01 18:36:18;;;;;;;6.10;2.17;;;12.50;99.90;;;;;;4121043;28;20385;-73
2021/11/01 18:38:55;;;;;;;5.97;2.33;;;12.30;99.90;;;;;;4126997;28;20538;-72
2021/11/01 18:45:17;;;;;;;4.85;2.20;;;12.30;99.90;;;;;;4123975;28;20246;-72
2021/11/01 18:52:08;;;;;;;6.72;1.80;;;12.30;99.90;;;;;;4124609;28;20113;-72
2021/11/01 18:54:18;;;;;;;2.97;1.30;;;12.20;99.90;;;;;;4126378;28;20030;-72
2021/11/01 18:56:27;;;;;;;8.10;1.88;;;12.20;99.90;;;;;;4126991;28;20117;-72
2021/11/01 18:58:27;;;;;;;4.97;1.25;;;12.20;99.90;;;;;;4123458;28;20113;-72
2021/11/01 19:00:28;;;;;;;3.03;1.35;;;12.20;99.90;;;;;;4123062;28;20045;-72
2021/11/01 19:02:38;;;;;;;3.72;1.02;;;12.30;99.90;;;;;;4122366;28;20046;-73
2021/11/01 19:04:49;;;;;;;3.13;1.30;;;12.30;99.90;;;;;;4115393;28;20049;-72
2021/11/01 19:06:54;;;;;;;4.70;1.10;;;12.30;99.90;;;;;;4120856;28;20134;-72
2021/11/01 19:14:33;;;;;;;7.28;2.63;;;12.50;99.90;;;;;;4124037;28;20518;-73
2021/11/01 20:14:39;;;;;;;6.60;2.72;;;12.10;99.90;;;;;;4122432;28;20030;-73
2021/11/01 21:24:29;;;;;;;6.78;2.15;;;12.10;99.90;;;;;;4119857;28;20037;-72
2021/11/01 21:27:09;;;;;;;6.50;2.67;;;11.40;99.90;;;;;;4120894;28;20038;-72
2021/11/01 21:29:09;;;;;;;6.50;2.10;;;11.40;99.90;;;;;;4124419;28;20258;-72
2021/11/01 21:31:10;;;;;;;4.57;2.08;;;11.30;99.90;;;;;;4121920;28;20450;-72
2021/11/01 21:33:15;;;;;;;3.53;1.77;;;11.30;99.90;;;;;;4124200;28;20309;-72
2021/11/01 21:35:18;;;;;;;5.22;2.08;;;11.30;99.90;;;;;;4120703;28;20057;-72
2021/11/01 21:37:19;;;;;;;5.07;2.13;;;11.30;99.90;;;;;;4123654;28;20041;-72
2021/11/01 21:39:20;;;;;;;5.10;2.00;;;11.20;99.90;;;;;;4122343;28;20406;-72
2021/11/01 21:41:22;;;;;;;10.82;2.50;;;11.20;99.90;;;;;;4124949;28;20538;-72
2021/11/01 21:43:23;;;;;;;4.60;2.05;;;11.20;99.90;;;;;;4123032;28;20064;-72
2021/11/01 21:45:24;;;;;;;3.50;1.70;;;11.20;99.90;;;;;;4124955;28;20118;-72